sensor_id;sensor_type;location;lat;lon;timestamp;P1;P2;P0
76045;PMS7003;64741;41.730;44.788;2023-07-09T00:03:00;4.6;3;2.4
76045;PMS7003;64741;41.730;44.788;2023-07-09T00:07:52;3.6;3.2;2.2
76045;PMS7003;64741;41.730;44.788;2023-07-09T00:13:03;4.2;2.6;2
76045;PMS7003;64741;41.730;44.788;2023-07-09T00:18:02;3.4;3;2.2
76045;PMS7003;64741;41.730;44.788;2023-07-09T00:22:50;3.6;2.6;2.2
76045;PMS7003;64741;41.730;44.788;2023-07-09T00:27:52;3;2.8;2
76045;PMS7003;64741;41.730;44.788;2023-07-09T00:32:52;3.6;2.8;2
76045;PMS7003;64741;41.730;44.788;2023-07-09T00:37:58;4.6;3.6;2.8
76045;PMS7003;64741;41.730;44.788;2023-07-09T00:42:13;4.4;3.8;3
76045;PMS7003;64741;41.730;44.788;2023-07-09T00:47:53;4.6;3.6;3.2
76045;PMS7003;64741;41.730;44.788;2023-07-09T00:53:02;2.8;2.6;2
76045;PMS7003;64741;41.730;44.788;2023-07-09T00:58:01;4;3.6;2.6
76045;PMS7003;64741;41.730;44.788;2023-07-09T01:02:52;4.2;3.6;2.8
76045;PMS7003;64741;41.730;44.788;2023-07-09T01:07:52;3.8;3.2;2
76045;PMS7003;64741;41.730;44.788;2023-07-09T01:12:52;2.8;2.8;2.2
76045;PMS7003;64741;41.730;44.788;2023-07-09T01:17:52;2.2;2;1.6
76045;PMS7003;64741;41.730;44.788;2023-07-09T01:22:54;2.2;1.8;1.4
76045;PMS7003;64741;41.730;44.788;2023-07-09T01:27:50;3.6;2.2;1.6
76045;PMS7003;64741;41.730;44.788;2023-07-09T01:32:55;2.8;2.6;2
76045;PMS7003;64741;41.730;44.788;2023-07-09T01:37:52;2.4;2.2;1.4
76045;PMS7003;64741;41.730;44.788;2023-07-09T01:42:25;2.8;2.8;2
76045;PMS7003;64741;41.730;44.788;2023-07-09T01:47:12;2.4;2.2;1.4
76045;PMS7003;64741;41.730;44.788;2023-07-09T01:52:53;3;2.4;1.6
76045;PMS7003;64741;41.730;44.788;2023-07-09T01:58:00;2;2;1.6
76045;PMS7003;64741;41.730;44.788;2023-07-09T02:02:48;2.4;2.4;2
76045;PMS7003;64741;41.730;44.788;2023-07-09T02:07:52;2.6;2;1.8
76045;PMS7003;64741;41.730;44.788;2023-07-09T02:13:00;3.2;2.4;2.2
76045;PMS7003;64741;41.730;44.788;2023-07-09T02:17:49;2.6;1.8;1.4
76045;PMS7003;64741;41.730;44.788;2023-07-09T02:22:53;3;2.2;1.4
76045;PMS7003;64741;41.730;44.788;2023-07-09T02:27:52;2.2;1.6;1.2
76045;PMS7003;64741;41.730;44.788;2023-07-09T02:32:55;2;1.8;1
76045;PMS7003;64741;41.730;44.788;2023-07-09T02:37:51;3;2;1.2
76045;PMS7003;64741;41.730;44.788;2023-07-09T02:42:55;2.4;1.8;1.6
76045;PMS7003;64741;41.730;44.788;2023-07-09T02:48:01;1.8;1.6;0.8
76045;PMS7003;64741;41.730;44.788;2023-07-09T02:53:03;1.4;1.4;1.2
76045;PMS7003;64741;41.730;44.788;2023-07-09T02:57:53;1.2;1.2;0.6
76045;PMS7003;64741;41.730;44.788;2023-07-09T03:02:51;1.3;1.3;0.8
76045;PMS7003;64741;41.730;44.788;2023-07-09T03:08:01;2.2;1.8;1.4
76045;PMS7003;64741;41.730;44.788;2023-07-09T03:12:19;2.4;2;0.8
76045;PMS7003;64741;41.730;44.788;2023-07-09T03:17:53;3;2.8;2
76045;PMS7003;64741;41.730;44.788;2023-07-09T03:22:51;2.6;2;1.2
76045;PMS7003;64741;41.730;44.788;2023-07-09T03:27:53;2;1.6;1.2
76045;PMS7003;64741;41.730;44.788;2023-07-09T03:33:01;1.6;1.6;0.6
76045;PMS7003;64741;41.730;44.788;2023-07-09T03:37:55;2.2;1.2;0.8
76045;PMS7003;64741;41.730;44.788;2023-07-09T03:43:03;2.6;1.4;1.2
76045;PMS7003;64741;41.730;44.788;2023-07-09T03:47:53;2.4;1.4;1
76045;PMS7003;64741;41.730;44.788;2023-07-09T03:53:01;2.4;1.8;1.2
76045;PMS7003;64741;41.730;44.788;2023-07-09T03:57:49;2.6;2;1.8
76045;PMS7003;64741;41.730;44.788;2023-07-09T04:02:53;1.8;1.6;1.6
76045;PMS7003;64741;41.730;44.788;2023-07-09T04:07:53;2.4;2.4;2
76045;PMS7003;64741;41.730;44.788;2023-07-09T04:12:51;1.8;1.8;1.6
76045;PMS7003;64741;41.730;44.788;2023-07-09T04:17:55;2.8;2;1.8
76045;PMS7003;64741;41.730;44.788;2023-07-09T04:22:55;2.8;1.6;0.8
76045;PMS7003;64741;41.730;44.788;2023-07-09T04:27:49;1.8;1.6;0.8
76045;PMS7003;64741;41.730;44.788;2023-07-09T04:32:53;3.2;2.6;2.2
76045;PMS7003;64741;41.730;44.788;2023-07-09T04:38:01;3;2.8;2
76045;PMS7003;64741;41.730;44.788;2023-07-09T04:43:03;2.4;2.2;1.6
76045;PMS7003;64741;41.730;44.788;2023-07-09T04:47:49;3;2.8;2
76045;PMS7003;64741;41.730;44.788;2023-07-09T04:52:53;3.2;3;2.2
76045;PMS7003;64741;41.730;44.788;2023-07-09T04:57:53;2.4;2.4;1.8
76045;PMS7003;64741;41.730;44.788;2023-07-09T05:03:01;4.2;3.6;2.4
76045;PMS7003;64741;41.730;44.788;2023-07-09T05:07:53;3.2;2.8;1.6
76045;PMS7003;64741;41.730;44.788;2023-07-09T05:12:53;2.2;1.6;1
76045;PMS7003;64741;41.730;44.788;2023-07-09T05:18:01;2.8;2.4;1.4
76045;PMS7003;64741;41.730;44.788;2023-07-09T05:23:01;3;1.8;1.6
76045;PMS7003;64741;41.730;44.788;2023-07-09T05:27:53;2;1.8;1
76045;PMS7003;64741;41.730;44.788;2023-07-09T05:32:53;3.8;2.4;1.6
76045;PMS7003;64741;41.730;44.788;2023-07-09T05:37:53;3.2;2.8;2.2
76045;PMS7003;64741;41.730;44.788;2023-07-09T05:42:53;5;3.6;2.6
76045;PMS7003;64741;41.730;44.788;2023-07-09T05:47:55;4.4;3.6;2.6
76045;PMS7003;64741;41.730;44.788;2023-07-09T05:52:49;4.2;3.2;1.8
76045;PMS7003;64741;41.730;44.788;2023-07-09T05:57:49;2.4;2.4;1.6
76045;PMS7003;64741;41.730;44.788;2023-07-09T06:02:49;4.6;4;3
76045;PMS7003;64741;41.730;44.788;2023-07-09T06:07:49;4.6;4.6;3
76045;PMS7003;64741;41.730;44.788;2023-07-09T06:12:53;4.8;4.2;3
76045;PMS7003;64741;41.730;44.788;2023-07-09T06:17:53;4.8;3.6;2.6
76045;PMS7003;64741;41.730;44.788;2023-07-09T06:23:01;5.2;3.6;3
76045;PMS7003;64741;41.730;44.788;2023-07-09T06:27:49;4.6;4;2.8
76045;PMS7003;64741;41.730;44.788;2023-07-09T06:32:53;4.2;4;3.2
76045;PMS7003;64741;41.730;44.788;2023-07-09T06:37:59;4.2;3.2;2.4
76045;PMS7003;64741;41.730;44.788;2023-07-09T06:42:49;4.2;3.4;2.2
76045;PMS7003;64741;41.730;44.788;2023-07-09T06:47:37;4.2;3.6;3
76045;PMS7003;64741;41.730;44.788;2023-07-09T06:52:53;3.6;3.4;3
76045;PMS7003;64741;41.730;44.788;2023-07-09T06:57:53;4.4;3.8;2.8
76045;PMS7003;64741;41.730;44.788;2023-07-09T07:02:49;5.4;4.6;3.6
76045;PMS7003;64741;41.730;44.788;2023-07-09T07:07:53;4.4;4;3.2
76045;PMS7003;64741;41.730;44.788;2023-07-09T07:13:01;4.2;4;3
76045;PMS7003;64741;41.730;44.788;2023-07-09T07:17:45;4.4;3.4;2.2
76045;PMS7003;64741;41.730;44.788;2023-07-09T07:22:53;4.2;3.8;2.6
76045;PMS7003;64741;41.730;44.788;2023-07-09T07:27:49;4.4;3;2.2
76045;PMS7003;64741;41.730;44.788;2023-07-09T07:33:03;4.2;3.8;2.8
76045;PMS7003;64741;41.730;44.788;2023-07-09T07:37:53;3.2;2.8;2
76045;PMS7003;64741;41.730;44.788;2023-07-09T07:42:33;20.6;17.2;12.8
76045;PMS7003;64741;41.730;44.788;2023-07-09T07:47:49;91.6;76;49
76045;PMS7003;64741;41.730;44.788;2023-07-09T07:52:55;108;96.2;64.6
76045;PMS7003;64741;41.730;44.788;2023-07-09T07:58:01;128.6;113.4;74.8
76045;PMS7003;64741;41.730;44.788;2023-07-09T08:02:39;103;90.4;59.4
76045;PMS7003;64741;41.730;44.788;2023-07-09T08:08:01;74.4;63.2;41.6
76045;PMS7003;64741;41.730;44.788;2023-07-09T08:12:53;76.4;64.6;44
76045;PMS7003;64741;41.730;44.788;2023-07-09T08:18:01;77.8;68.5;45.3
76045;PMS7003;64741;41.730;44.788;2023-07-09T08:22:49;72.4;57.4;38.8
76045;PMS7003;64741;41.730;44.788;2023-07-09T08:27:53;67.4;52.4;34.6
76045;PMS7003;64741;41.730;44.788;2023-07-09T08:32:53;59.6;45.8;30.4
76045;PMS7003;64741;41.730;44.788;2023-07-09T08:37:49;57.8;46;30.6
76045;PMS7003;64741;41.730;44.788;2023-07-09T08:42:53;56.8;44.2;29.2
76045;PMS7003;64741;41.730;44.788;2023-07-09T08:47:39;49;39.2;26.4
76045;PMS7003;64741;41.730;44.788;2023-07-09T08:53:01;49.6;39;26.2
76045;PMS7003;64741;41.730;44.788;2023-07-09T08:57:54;46.2;36.6;24.8
76045;PMS7003;64741;41.730;44.788;2023-07-09T09:03:03;45;35.4;23.8
76045;PMS7003;64741;41.730;44.788;2023-07-09T09:07:51;38;32.4;22.4
76045;PMS7003;64741;41.730;44.788;2023-07-09T09:12:53;31.4;28.2;19.4
76045;PMS7003;64741;41.730;44.788;2023-07-09T09:17:58;32.6;27.6;19.4
76045;PMS7003;64741;41.730;44.788;2023-07-09T09:22:54;25;23.2;17.2
76045;PMS7003;64741;41.730;44.788;2023-07-09T09:28:01;26.6;24.6;18.6
76045;PMS7003;64741;41.730;44.788;2023-07-09T09:32:54;28.8;25.2;17.8
76045;PMS7003;64741;41.730;44.788;2023-07-09T09:37:54;29.6;26.8;17.8
76045;PMS7003;64741;41.730;44.788;2023-07-09T09:43:01;27.2;24.8;16.6
76045;PMS7003;64741;41.730;44.788;2023-07-09T09:48:01;26.4;22.6;16.6
76045;PMS7003;64741;41.730;44.788;2023-07-09T09:52:53;25.4;22.8;16.4
76045;PMS7003;64741;41.730;44.788;2023-07-09T09:57:53;22.6;19.8;14
76045;PMS7003;64741;41.730;44.788;2023-07-09T10:02:57;23.6;21.2;15
76045;PMS7003;64741;41.730;44.788;2023-07-09T10:07:55;20;17.6;12.6
76045;PMS7003;64741;41.730;44.788;2023-07-09T10:13:02;22;18.6;13.6
76045;PMS7003;64741;41.730;44.788;2023-07-09T10:17:52;19.2;16.6;12
76045;PMS7003;64741;41.730;44.788;2023-07-09T10:22:50;16.2;14.4;11.2
76045;PMS7003;64741;41.730;44.788;2023-07-09T10:27:54;17.4;15.6;11
76045;PMS7003;64741;41.730;44.788;2023-07-09T10:32:42;15.4;14.4;10.8
76045;PMS7003;64741;41.730;44.788;2023-07-09T10:37:45;15.8;14;10.8
76045;PMS7003;64741;41.730;44.788;2023-07-09T10:42:54;17.8;16;11.2
76045;PMS7003;64741;41.730;44.788;2023-07-09T10:47:48;18;15.4;11
76045;PMS7003;64741;41.730;44.788;2023-07-09T10:52:49;19.4;17.4;13
76045;PMS7003;64741;41.730;44.788;2023-07-09T10:57:54;19;16.6;12.6
76045;PMS7003;64741;41.730;44.788;2023-07-09T11:03:02;15.4;13.4;9.8
76045;PMS7003;64741;41.730;44.788;2023-07-09T11:08:01;15.4;13;9.4
76045;PMS7003;64741;41.730;44.788;2023-07-09T11:12:55;12.8;11.2;8.6
76045;PMS7003;64741;41.730;44.788;2023-07-09T11:17:53;10.4;8.8;6.2
76045;PMS7003;64741;41.730;44.788;2023-07-09T11:22:54;11;8.6;6.2
76045;PMS7003;64741;41.730;44.788;2023-07-09T11:27:50;10.4;8.4;6.4
76045;PMS7003;64741;41.730;44.788;2023-07-09T11:32:53;9.4;8.4;6.2
76045;PMS7003;64741;41.730;44.788;2023-07-09T11:38:07;8.4;7.8;6.2
76045;PMS7003;64741;41.730;44.788;2023-07-09T11:42:48;8.4;6.6;4.6
76045;PMS7003;64741;41.730;44.788;2023-07-09T11:47:54;4.4;4.4;3
76045;PMS7003;64741;41.730;44.788;2023-07-09T11:52:30;5.2;4.2;3.4
76045;PMS7003;64741;41.730;44.788;2023-07-09T12:02:53;27;26;19
76045;PMS7003;64741;41.730;44.788;2023-07-09T12:07:53;28.4;25.4;19
76045;PMS7003;64741;41.730;44.788;2023-07-09T12:12:54;26.8;23.4;18
76045;PMS7003;64741;41.730;44.788;2023-07-09T12:17:56;22.2;20.2;15.4
76045;PMS7003;64741;41.730;44.788;2023-07-09T12:22:59;21.4;20.4;15
76045;PMS7003;64741;41.730;44.788;2023-07-09T12:27:53;21;18.4;13.4
76045;PMS7003;64741;41.730;44.788;2023-07-09T12:33:01;18.8;16.2;12
76045;PMS7003;64741;41.730;44.788;2023-07-09T12:37:53;15.4;13.4;9.8
76045;PMS7003;64741;41.730;44.788;2023-07-09T12:43:01;11.2;10.2;8.2
76045;PMS7003;64741;41.730;44.788;2023-07-09T12:47:49;9.8;8.8;7.2
76045;PMS7003;64741;41.730;44.788;2023-07-09T12:52:53;8.2;7;5
76045;PMS7003;64741;41.730;44.788;2023-07-09T12:57:55;9;8;5.8
76045;PMS7003;64741;41.730;44.788;2023-07-09T13:02:51;16.2;13.8;11
76045;PMS7003;64741;41.730;44.788;2023-07-09T13:07:54;35.2;30.6;20.6
76045;PMS7003;64741;41.730;44.788;2023-07-09T13:12:54;28;25.2;18.8
76045;PMS7003;64741;41.730;44.788;2023-07-09T13:18:02;16.8;14.2;11
76045;PMS7003;64741;41.730;44.788;2023-07-09T13:22:54;15.8;14.2;10.4
76045;PMS7003;64741;41.730;44.788;2023-07-09T13:28:01;15.2;13.8;10.4
76045;PMS7003;64741;41.730;44.788;2023-07-09T13:32:29;16.2;15;11.4
76045;PMS7003;64741;41.730;44.788;2023-07-09T13:37:27;12.8;11;8.6
76045;PMS7003;64741;41.730;44.788;2023-07-09T13:42:53;10;8.2;6.4
76045;PMS7003;64741;41.730;44.788;2023-07-09T13:47:53;8;7;5.4
76045;PMS7003;64741;41.730;44.788;2023-07-09T13:53:01;6.3;6;4.8
76045;PMS7003;64741;41.730;44.788;2023-07-09T13:57:53;5.2;3.8;3.2
76045;PMS7003;64741;41.730;44.788;2023-07-09T14:02:53;6;5;3.6
76045;PMS7003;64741;41.730;44.788;2023-07-09T14:08:01;6.4;6.4;4.6
76045;PMS7003;64741;41.730;44.788;2023-07-09T14:13:01;6.2;6.2;4.6
76045;PMS7003;64741;41.730;44.788;2023-07-09T14:17:53;6.4;5.4;4.2
76045;PMS7003;64741;41.730;44.788;2023-07-09T14:22:49;6.8;6;4.8
76045;PMS7003;64741;41.730;44.788;2023-07-09T14:27:53;6.6;5.8;5
76045;PMS7003;64741;41.730;44.788;2023-07-09T14:32:53;5.6;5.2;4.2
76045;PMS7003;64741;41.730;44.788;2023-07-09T14:37:53;6;5.8;4.6
76045;PMS7003;64741;41.730;44.788;2023-07-09T14:42:49;5.8;4.8;3.4
76045;PMS7003;64741;41.730;44.788;2023-07-09T14:47:53;6;5;3.8
76045;PMS7003;64741;41.730;44.788;2023-07-09T14:52:53;5.8;5;4.4
76045;PMS7003;64741;41.730;44.788;2023-07-09T14:57:51;5.4;5;3.6
76045;PMS7003;64741;41.730;44.788;2023-07-09T15:03:01;4.4;4.4;3.6
76045;PMS7003;64741;41.730;44.788;2023-07-09T15:07:43;5;4.4;3.6
76045;PMS7003;64741;41.730;44.788;2023-07-09T15:13:01;5.4;4.2;2.8
76045;PMS7003;64741;41.730;44.788;2023-07-09T15:17:47;6.6;4.8;3.8
76045;PMS7003;64741;41.730;44.788;2023-07-09T15:22:49;5.2;5.2;4
76045;PMS7003;64741;41.730;44.788;2023-07-09T15:27:47;7.4;5.2;4
76045;PMS7003;64741;41.730;44.788;2023-07-09T15:32:19;6.8;5;4
76045;PMS7003;64741;41.730;44.788;2023-07-09T15:37:53;4.6;4.4;3.6
76045;PMS7003;64741;41.730;44.788;2023-07-09T15:42:54;6.4;5.4;4.4
76045;PMS7003;64741;41.730;44.788;2023-07-09T15:48:01;5.8;4.8;3.8
76045;PMS7003;64741;41.730;44.788;2023-07-09T15:52:49;9.2;8.2;6
76045;PMS7003;64741;41.730;44.788;2023-07-09T15:57:54;7;5.6;4.6
76045;PMS7003;64741;41.730;44.788;2023-07-09T16:02:59;4.8;4.2;3.2
76045;PMS7003;64741;41.730;44.788;2023-07-09T16:07:49;5;4.4;3
76045;PMS7003;64741;41.730;44.788;2023-07-09T16:12:53;4.8;4.6;3.8
76045;PMS7003;64741;41.730;44.788;2023-07-09T16:17:53;6;5.2;4
76045;PMS7003;64741;41.730;44.788;2023-07-09T16:22:05;4.8;4.2;3.8
76045;PMS7003;64741;41.730;44.788;2023-07-09T16:27:51;6.6;5.8;4.2
76045;PMS7003;64741;41.730;44.788;2023-07-09T16:32:53;6;5.4;4.4
76045;PMS7003;64741;41.730;44.788;2023-07-09T16:38:03;6.2;4.4;3.6
76045;PMS7003;64741;41.730;44.788;2023-07-09T16:42:46;7.6;6.8;5.4
76045;PMS7003;64741;41.730;44.788;2023-07-09T16:47:53;7.8;6.8;5.4
76045;PMS7003;64741;41.730;44.788;2023-07-09T16:52:50;12.8;11;7.6
76045;PMS7003;64741;41.730;44.788;2023-07-09T16:58:01;13.2;11.2;8.8
76045;PMS7003;64741;41.730;44.788;2023-07-09T17:02:37;6;5.8;4.8
76045;PMS7003;64741;41.730;44.788;2023-07-09T17:07:29;8.4;7.4;5.8
76045;PMS7003;64741;41.730;44.788;2023-07-09T17:12:53;7.6;7.2;5.8
76045;PMS7003;64741;41.730;44.788;2023-07-09T17:17:54;10.8;10.2;8.2
76045;PMS7003;64741;41.730;44.788;2023-07-09T17:23:01;8.8;7.6;5.6
76045;PMS7003;64741;41.730;44.788;2023-07-09T17:27:53;11.8;10.8;8.4
76045;PMS7003;64741;41.730;44.788;2023-07-09T17:33:01;12.8;11.4;8.8
76045;PMS7003;64741;41.730;44.788;2023-07-09T17:37:54;10.4;10;8
76045;PMS7003;64741;41.730;44.788;2023-07-09T17:43:01;9;7.4;5.2
76045;PMS7003;64741;41.730;44.788;2023-07-09T17:47:49;9.6;7.2;5
76045;PMS7003;64741;41.730;44.788;2023-07-09T17:52:54;10;8.8;7.2
76045;PMS7003;64741;41.730;44.788;2023-07-09T17:57:53;11.4;11;9
76045;PMS7003;64741;41.730;44.788;2023-07-09T18:02:51;9.6;9;7.2
76045;PMS7003;64741;41.730;44.788;2023-07-09T18:07:53;9.2;8.6;6.6
76045;PMS7003;64741;41.730;44.788;2023-07-09T18:12:54;7.2;6.4;5
76045;PMS7003;64741;41.730;44.788;2023-07-09T18:18:04;7;6;4.4
76045;PMS7003;64741;41.730;44.788;2023-07-09T18:22:53;5.4;4.6;3.2
76045;PMS7003;64741;41.730;44.788;2023-07-09T18:28:02;3.2;3.2;2.2
76045;PMS7003;64741;41.730;44.788;2023-07-09T18:33:02;2.6;2.6;1.6
76045;PMS7003;64741;41.730;44.788;2023-07-09T18:37:50;2.2;2.2;1.4
76045;PMS7003;64741;41.730;44.788;2023-07-09T18:42:53;4;3.4;2.4
76045;PMS7003;64741;41.730;44.788;2023-07-09T18:47:53;2.4;2.4;2
76045;PMS7003;64741;41.730;44.788;2023-07-09T18:52:53;3.6;2.4;1.4
76045;PMS7003;64741;41.730;44.788;2023-07-09T18:57:53;3.6;3.2;2.4
76045;PMS7003;64741;41.730;44.788;2023-07-09T19:02:53;3;2.4;1.8
76045;PMS7003;64741;41.730;44.788;2023-07-09T19:07:50;2.8;2;1.3
76045;PMS7003;64741;41.730;44.788;2023-07-09T19:12:54;2.8;2.8;2.2
76045;PMS7003;64741;41.730;44.788;2023-07-09T19:17:53;3;2.2;1.6
76045;PMS7003;64741;41.730;44.788;2023-07-09T19:22:50;3;2.6;1.8
76045;PMS7003;64741;41.730;44.788;2023-07-09T19:27:59;2.6;2.6;1.8
76045;PMS7003;64741;41.730;44.788;2023-07-09T19:32:54;2.4;2.2;1.6
76045;PMS7003;64741;41.730;44.788;2023-07-09T19:38:02;2.8;2.2;1.2
76045;PMS7003;64741;41.730;44.788;2023-07-09T19:42:35;3.6;2.6;2.4
76045;PMS7003;64741;41.730;44.788;2023-07-09T19:47:50;3.2;2.6;1.6
76045;PMS7003;64741;41.730;44.788;2023-07-09T19:52:50;3.6;2.8;2
76045;PMS7003;64741;41.730;44.788;2023-07-09T19:57:50;2.2;2.2;1.2
76045;PMS7003;64741;41.730;44.788;2023-07-09T20:02:54;4;3;2
76045;PMS7003;64741;41.730;44.788;2023-07-09T20:07:54;2.6;2.6;2
76045;PMS7003;64741;41.730;44.788;2023-07-09T20:12:54;1.8;1.6;0.8
76045;PMS7003;64741;41.730;44.788;2023-07-09T20:17:50;1.8;1.8;1.2
76045;PMS7003;64741;41.730;44.788;2023-07-09T20:22:53;2.2;2.2;1.4
76045;PMS7003;64741;41.730;44.788;2023-07-09T20:27:59;2.2;2;1.4
76045;PMS7003;64741;41.730;44.788;2023-07-09T20:32:51;1.8;1.2;0.8
76045;PMS7003;64741;41.730;44.788;2023-07-09T20:37:51;0.6;0.4;0.2
76045;PMS7003;64741;41.730;44.788;2023-07-09T20:42:54;0.8;0.8;0.2
76045;PMS7003;64741;41.730;44.788;2023-07-09T20:47:53;0.8;0.8;0.8
76045;PMS7003;64741;41.730;44.788;2023-07-09T20:52:49;1.6;1.4;1
76045;PMS7003;64741;41.730;44.788;2023-07-09T20:57:54;2;1.8;1.2
76045;PMS7003;64741;41.730;44.788;2023-07-09T21:03:04;1.6;1.6;1
76045;PMS7003;64741;41.730;44.788;2023-07-09T21:08:04;1.8;1.2;0.4
76045;PMS7003;64741;41.730;44.788;2023-07-09T21:12:53;1.2;0.6;0.6
76045;PMS7003;64741;41.730;44.788;2023-07-09T21:17:51;0.2;0.2;0.2
76045;PMS7003;64741;41.730;44.788;2023-07-09T21:23:04;1.4;1;0.6
76045;PMS7003;64741;41.730;44.788;2023-07-09T21:27:54;0.6;0.4;0.4
76045;PMS7003;64741;41.730;44.788;2023-07-09T21:32:55;0.2;0.2;0
76045;PMS7003;64741;41.730;44.788;2023-07-09T21:37:52;0.6;0.4;0.2
76045;PMS7003;64741;41.730;44.788;2023-07-09T21:42:56;1.4;0.8;0.4
76045;PMS7003;64741;41.730;44.788;2023-07-09T21:48:04;0.6;0.6;0
76045;PMS7003;64741;41.730;44.788;2023-07-09T21:52:53;0.6;0.6;0.4
76045;PMS7003;64741;41.730;44.788;2023-07-09T21:58:01;0.2;0;0
76045;PMS7003;64741;41.730;44.788;2023-07-09T22:02:54;0.8;0.4;0
76045;PMS7003;64741;41.730;44.788;2023-07-09T22:07:46;0.2;0.2;0
76045;PMS7003;64741;41.730;44.788;2023-07-09T22:12:50;0.2;0;0
76045;PMS7003;64741;41.730;44.788;2023-07-09T22:17:55;0;0;0
76045;PMS7003;64741;41.730;44.788;2023-07-09T22:22:54;0;0;0
76045;PMS7003;64741;41.730;44.788;2023-07-09T22:27:50;0.2;0;0
76045;PMS7003;64741;41.730;44.788;2023-07-09T22:32:54;0;0;0
76045;PMS7003;64741;41.730;44.788;2023-07-09T22:37:55;0.2;0;0
76045;PMS7003;64741;41.730;44.788;2023-07-09T22:43:03;0.6;0;0
76045;PMS7003;64741;41.730;44.788;2023-07-09T22:47:54;0;0;0
76045;PMS7003;64741;41.730;44.788;2023-07-09T22:53:05;0;0;0
76045;PMS7003;64741;41.730;44.788;2023-07-09T22:58:04;0;0;0
76045;PMS7003;64741;41.730;44.788;2023-07-09T23:03:05;0;0;0
76045;PMS7003;64741;41.730;44.788;2023-07-09T23:07:54;0.2;0;0
76045;PMS7003;64741;41.730;44.788;2023-07-09T23:12:53;0.2;0;0
76045;PMS7003;64741;41.730;44.788;2023-07-09T23:17:54;0;0;0
76045;PMS7003;64741;41.730;44.788;2023-07-09T23:22:53;0.2;0;0
76045;PMS7003;64741;41.730;44.788;2023-07-09T23:27:56;0;0;0
76045;PMS7003;64741;41.730;44.788;2023-07-09T23:32:52;0.2;0.2;0.2
76045;PMS7003;64741;41.730;44.788;2023-07-09T23:37:55;0;0;0
76045;PMS7003;64741;41.730;44.788;2023-07-09T23:42:48;0;0;0
76045;PMS7003;64741;41.730;44.788;2023-07-09T23:47:50;0;0;0
76045;PMS7003;64741;41.730;44.788;2023-07-09T23:53:04;0;0;0
76045;PMS7003;64741;41.730;44.788;2023-07-09T23:57:06;0;0;0
